createdAt,value
2019-02-12T00:01:32.431Z,12.20
2019-02-12T00:04:07.661Z,12.50
2019-02-12T00:06:42.685Z,12.50
2019-02-12T00:09:17.717Z,12.60
2019-02-12T00:11:53.882Z,12.50
2019-02-12T00:14:28.812Z,12.50
2019-02-12T00:17:04.091Z,12.30
2019-02-12T00:19:40.069Z,12.30
2019-02-12T00:22:15.648Z,12.30
2019-02-12T00:24:50.791Z,12.20
2019-02-12T00:27:27.473Z,12.00
2019-02-12T00:30:02.921Z,12.30
2019-02-12T00:32:38.306Z,12.50
2019-02-12T00:35:13.392Z,12.60
2019-02-12T00:37:48.550Z,12.60
2019-02-12T00:40:24.159Z,12.60
2019-02-12T00:42:59.217Z,12.40
2019-02-12T00:45:33.780Z,12.20
2019-02-12T00:48:09.699Z,11.70
2019-02-12T00:50:44.332Z,11.50
2019-02-12T00:53:19.097Z,11.20
2019-02-12T00:55:53.891Z,11.10
2019-02-12T00:58:29.460Z,10.70
2019-02-12T01:01:05.983Z,10.70
2019-02-12T01:03:41.563Z,10.90
2019-02-12T01:06:16.468Z,10.60
2019-02-12T01:08:51.515Z,10.40
2019-02-12T01:11:26.462Z,10.30
2019-02-12T01:14:01.964Z,10.20
2019-02-12T01:16:38.044Z,10.30
2019-02-12T01:19:13.254Z,10.30
2019-02-12T01:21:49.448Z,10.90
2019-02-12T01:24:23.810Z,11.00
2019-02-12T01:27:00.562Z,11.00
2019-02-12T01:29:35.478Z,10.80
2019-02-12T01:32:09.871Z,10.70
2019-02-12T01:34:44.228Z,10.60
2019-02-12T01:37:19.376Z,10.70
2019-02-12T01:39:56.256Z,10.80
2019-02-12T01:42:32.587Z,11.00
2019-02-12T01:45:07.287Z,11.10
2019-02-12T01:47:42.895Z,11.30
2019-02-12T01:50:18.256Z,11.50
2019-02-12T01:52:53.261Z,11.50
2019-02-12T01:55:27.997Z,11.60
2019-02-12T01:58:02.586Z,11.80
2019-02-12T02:00:38.343Z,12.00
2019-02-12T02:03:13.707Z,11.50
2019-02-12T02:05:48.725Z,11.20
2019-02-12T02:08:24.348Z,11.20
2019-02-12T02:11:00.138Z,11.50
2019-02-12T02:13:35.741Z,11.50
2019-02-12T02:16:11.033Z,11.80
2019-02-12T02:18:45.955Z,11.60
2019-02-12T02:21:21.629Z,11.70
2019-02-12T02:23:56.860Z,11.80
2019-02-12T02:26:32.111Z,11.90
2019-02-12T02:29:06.372Z,11.80
2019-02-12T02:31:41.457Z,11.60
2019-02-12T02:34:17.978Z,11.40
2019-02-12T02:36:52.887Z,11.20
2019-02-12T02:39:29.336Z,10.90
2019-02-12T02:42:04.354Z,10.60
2019-02-12T02:44:39.394Z,10.50
2019-02-12T02:47:14.879Z,10.40
2019-02-12T02:49:50.782Z,10.60
2019-02-12T02:52:26.864Z,10.30
2019-02-12T02:55:02.901Z,10.30
2019-02-12T02:57:38.362Z,10.40
2019-02-12T03:00:13.858Z,10.80
2019-02-12T03:02:50.229Z,10.90
2019-02-12T03:05:26.408Z,10.90
2019-02-12T03:08:02.665Z,10.90
2019-02-12T03:10:39.957Z,10.60
2019-02-12T03:13:15.518Z,10.90
2019-02-12T03:15:50.463Z,11.20
2019-02-12T03:18:24.795Z,11.20
2019-02-12T03:20:59.950Z,11.40
2019-02-12T03:23:36.627Z,11.30
2019-02-12T03:26:11.520Z,11.10
2019-02-12T03:28:47.702Z,11.20
2019-02-12T03:31:23.765Z,11.40
2019-02-12T03:33:58.795Z,11.50
2019-02-12T03:36:34.771Z,11.40
2019-02-12T03:39:09.755Z,11.30
2019-02-12T03:41:45.333Z,11.10
2019-02-12T03:44:20.365Z,11.10
2019-02-12T03:46:56.813Z,11.20
2019-02-12T03:49:32.032Z,11.10
2019-02-12T03:52:12.837Z,11.10
2019-02-12T03:54:44.831Z,11.10
2019-02-12T03:57:19.773Z,10.90
2019-02-12T03:59:55.190Z,11.10
2019-02-12T04:02:29.634Z,11.20
2019-02-12T04:05:05.106Z,11.40
2019-02-12T04:07:40.348Z,11.50
2019-02-12T04:10:15.435Z,11.30
2019-02-12T04:12:51.350Z,11.30
2019-02-12T04:15:27.285Z,11.10
2019-02-12T04:18:03.799Z,11.20
2019-02-12T04:20:39.833Z,10.90
2019-02-12T04:23:14.783Z,10.80
2019-02-12T04:25:51.137Z,10.60
2019-02-12T04:28:26.706Z,10.70
2019-02-12T04:31:01.747Z,11.10
2019-02-12T04:33:38.231Z,11.40
2019-02-12T04:36:15.101Z,11.60
2019-02-12T04:38:51.391Z,11.90
2019-02-12T04:41:28.311Z,11.90
2019-02-12T04:44:04.396Z,11.80
2019-02-12T04:46:39.607Z,11.20
2019-02-12T04:49:15.571Z,10.90
2019-02-12T04:51:50.627Z,10.50
2019-02-12T04:54:25.661Z,10.40
2019-02-12T04:57:00.934Z,10.30
2019-02-12T04:59:37.499Z,10.70
2019-02-12T05:02:13.810Z,11.10
2019-02-12T05:04:48.731Z,11.00
2019-02-12T05:07:23.393Z,11.50
2019-02-12T05:09:59.596Z,12.00
2019-02-12T05:12:35.011Z,12.00
2019-02-12T05:15:10.304Z,11.90
2019-02-12T05:17:45.439Z,11.60
2019-02-12T05:20:20.820Z,11.60
2019-02-12T05:22:57.018Z,11.50
2019-02-12T05:25:32.835Z,11.30
2019-02-12T05:28:07.922Z,10.90
2019-02-12T05:30:42.541Z,11.10
2019-02-12T05:33:18.462Z,11.10
2019-02-12T05:35:54.513Z,11.40
2019-02-12T05:38:29.998Z,11.80
2019-02-12T05:41:05.166Z,11.80
2019-02-12T05:43:40.330Z,11.30
2019-02-12T05:46:16.139Z,11.20
2019-02-12T05:48:51.719Z,11.10
2019-02-12T05:51:27.858Z,11.00
2019-02-12T05:54:03.608Z,10.50
2019-02-12T05:56:39.038Z,10.70
2019-02-12T05:59:19.024Z,10.50
2019-02-12T06:02:01.865Z,10.20
2019-02-12T06:04:42.028Z,10.30
2019-02-12T06:07:17.756Z,10.00
2019-02-12T06:09:53.229Z,10.10
2019-02-12T06:12:28.987Z,10.10
2019-02-12T06:15:05.062Z,10.40
2019-02-12T06:17:40.537Z,10.10
2019-02-12T06:20:15.808Z,10.30
2019-02-12T06:22:51.161Z,10.40
2019-02-12T06:25:26.203Z,10.70
2019-02-12T06:28:01.317Z,10.70
2019-02-12T06:30:37.592Z,11.00
2019-02-12T06:33:12.813Z,11.00
2019-02-12T06:35:47.273Z,10.80
2019-02-12T06:38:22.509Z,10.80
2019-02-12T06:40:59.798Z,10.70
2019-02-12T06:43:36.286Z,10.70
2019-02-12T06:46:11.949Z,10.80
2019-02-12T06:48:47.850Z,10.60
2019-02-12T06:51:22.854Z,10.70
2019-02-12T06:53:58.487Z,10.80
2019-02-12T06:56:36.395Z,11.00
2019-02-12T06:59:11.548Z,11.00
2019-02-12T07:01:47.908Z,11.20
2019-02-12T07:04:31.766Z,11.20
2019-02-12T07:08:03.469Z,11.50
2019-02-12T07:10:42.295Z,11.60
2019-02-12T07:13:57.095Z,11.50
2019-02-12T07:17:36.247Z,11.60
2019-02-12T07:21:03.695Z,11.70
2019-02-12T07:24:26.423Z,11.70
2019-02-12T07:27:59.003Z,11.60
2019-02-12T07:31:17.290Z,11.10
2019-02-12T07:34:43.602Z,11.20
2019-02-12T07:38:01.739Z,11.40
2019-02-12T07:41:45.123Z,11.20
2019-02-12T07:44:50.628Z,11.30
2019-02-12T07:48:06.803Z,10.90
2019-02-12T07:51:48.018Z,10.70
2019-02-12T07:54:58.358Z,11.00
2019-02-12T07:58:33.130Z,10.90
2019-02-12T08:01:37.158Z,11.10
2019-02-12T08:05:13.466Z,10.70
2019-02-12T08:08:58.574Z,10.80
2019-02-12T08:12:12.303Z,11.00
2019-02-12T08:15:51.473Z,10.70
2019-02-12T08:18:50.041Z,11.10
2019-02-12T08:22:06.341Z,11.20
2019-02-12T08:25:18.236Z,10.80
2019-02-12T08:29:21.073Z,10.70
2019-02-12T08:32:32.733Z,11.20
2019-02-12T08:35:59.981Z,11.30
2019-02-12T08:39:38.003Z,11.40
2019-02-12T08:42:57.706Z,11.70
2019-02-12T09:03:06.887Z,11.40
2019-02-12T09:06:32.076Z,11.90
2019-02-12T09:09:59.110Z,11.40
2019-02-12T09:13:48.718Z,11.40
2019-02-12T09:17:42.902Z,11.70
2019-02-12T09:20:50.463Z,11.80
2019-02-12T09:24:23.861Z,11.70
2019-02-12T09:27:51.199Z,11.80
2019-02-12T09:31:25.701Z,11.30
2019-02-12T09:35:04.123Z,11.50
2019-02-12T09:38:31.605Z,11.60
2019-02-12T09:41:41.221Z,11.50
2019-02-12T09:45:04.987Z,11.00
2019-02-12T09:48:23.603Z,10.70
2019-02-12T09:51:39.921Z,11.30
2019-02-12T09:55:12.767Z,11.50
2019-02-12T09:58:08.062Z,11.90
2019-02-12T10:01:21.934Z,11.80
2019-02-12T10:05:20.901Z,11.50
2019-02-12T10:09:09.553Z,11.60
2019-02-12T10:12:39.755Z,11.50
2019-02-12T10:16:06.621Z,11.50
2019-02-12T10:19:42.558Z,12.00
2019-02-12T10:22:56.047Z,12.40
2019-02-12T10:25:39.550Z,12.10
2019-02-12T10:29:25.658Z,12.10
2019-02-12T10:31:55.061Z,12.00
2019-02-12T10:34:28.742Z,11.70
2019-02-12T10:37:02.442Z,11.80
2019-02-12T10:39:36.214Z,12.30
2019-02-12T10:42:10.443Z,12.30
2019-02-12T10:44:44.350Z,12.40
2019-02-12T10:47:18.732Z,12.40
2019-02-12T10:49:52.416Z,12.70
2019-02-12T10:52:27.124Z,12.80
2019-02-12T10:55:01.236Z,12.90
2019-02-12T10:57:35.653Z,12.50
2019-02-12T11:00:15.131Z,12.40
2019-02-12T11:02:50.378Z,12.00
2019-02-12T11:05:25.220Z,11.80
2019-02-12T11:07:59.759Z,12.10
2019-02-12T11:10:32.755Z,12.00
2019-02-12T11:13:06.588Z,12.20
2019-02-12T11:15:39.384Z,12.80
2019-02-12T11:18:13.302Z,13.00
2019-02-12T11:20:47.518Z,12.50
2019-02-12T11:23:22.049Z,12.40
2019-02-12T11:25:55.621Z,12.50
2019-02-12T11:28:30.289Z,12.60
2019-02-12T11:31:03.651Z,12.40
2019-02-12T11:33:37.705Z,12.50
2019-02-12T11:36:11.948Z,12.60
2019-02-12T11:38:46.742Z,12.90
2019-02-12T11:41:26.481Z,13.10
2019-02-12T11:44:00.877Z,13.20
2019-02-12T11:46:36.254Z,13.20
2019-02-12T11:49:10.682Z,13.00
2019-02-12T11:51:44.910Z,12.90
2019-02-12T11:54:18.942Z,12.70
2019-02-12T11:56:55.236Z,12.80
2019-02-12T11:59:30.882Z,12.60
2019-02-12T12:02:06.198Z,12.70
2019-02-12T12:04:41.118Z,12.90
2019-02-12T12:07:15.983Z,13.10
2019-02-12T12:09:49.828Z,13.30
2019-02-12T12:12:24.652Z,13.30
2019-02-12T12:15:00.269Z,13.60
2019-02-12T12:17:33.499Z,13.70
2019-02-12T12:20:08.937Z,13.90
2019-02-12T12:22:44.123Z,14.00
2019-02-12T12:25:19.017Z,14.20
2019-02-12T12:27:54.248Z,14.30
2019-02-12T12:30:28.700Z,14.20
2019-02-12T12:33:03.429Z,14.30
2019-02-12T12:35:37.174Z,14.40
2019-02-12T12:38:13.451Z,14.20
2019-02-12T12:40:48.115Z,13.80
2019-02-12T12:43:23.365Z,13.40
2019-02-12T12:45:58.752Z,13.00
2019-02-12T12:48:33.347Z,12.90
2019-02-12T12:51:08.548Z,13.00
2019-02-12T12:53:43.202Z,13.20
2019-02-12T12:56:16.608Z,13.60
2019-02-12T12:58:49.850Z,13.60
2019-02-12T13:01:23.593Z,13.30
2019-02-12T13:03:56.486Z,13.40
2019-02-12T13:06:30.584Z,14.10
2019-02-12T13:09:06.043Z,14.30
2019-02-12T13:11:39.880Z,14.60
2019-02-12T13:14:14.324Z,14.80
2019-02-12T13:16:48.805Z,15.40
2019-02-12T13:19:21.424Z,15.30
2019-02-12T13:21:54.827Z,15.70
2019-02-12T13:24:29.182Z,15.90
2019-02-12T13:27:01.648Z,16.50
2019-02-12T13:29:34.513Z,16.60
2019-02-12T13:32:09.040Z,16.40
2019-02-12T13:34:42.317Z,16.00
2019-02-12T13:37:16.231Z,15.80
2019-02-12T13:39:49.172Z,15.10
2019-02-12T13:42:21.667Z,15.10
2019-02-12T13:44:56.273Z,15.10
2019-02-12T13:47:31.419Z,15.30
2019-02-12T13:50:08.517Z,15.10
2019-02-12T13:52:41.493Z,14.50
2019-02-12T13:55:17.359Z,14.10
2019-02-12T13:57:49.124Z,14.30
2019-02-12T14:00:22.586Z,14.60
2019-02-12T14:02:56.116Z,14.50
2019-02-12T14:05:28.745Z,14.90
2019-02-12T14:08:01.973Z,14.90
2019-02-12T14:10:36.330Z,14.50
2019-02-12T14:13:10.705Z,14.40
2019-02-12T14:15:44.425Z,14.80
2019-02-12T14:18:18.498Z,15.80
2019-02-12T14:20:53.821Z,16.10
2019-02-12T14:23:28.520Z,15.70
2019-02-12T14:26:03.676Z,15.40
2019-02-12T14:28:37.942Z,15.40
2019-02-12T14:31:11.990Z,15.10
2019-02-12T14:33:46.149Z,14.80
2019-02-12T14:36:20.098Z,14.90
2019-02-12T14:38:54.221Z,14.50
2019-02-12T14:41:28.446Z,14.30
2019-02-12T14:44:02.869Z,14.10
2019-02-12T14:46:36.456Z,14.20
2019-02-12T14:49:10.770Z,14.80
2019-02-12T14:51:45.041Z,14.90
2019-02-12T14:54:19.134Z,14.90
2019-02-12T14:56:52.254Z,15.00
2019-02-12T14:59:26.062Z,14.70
2019-02-12T15:02:00.175Z,14.70
2019-02-12T15:04:34.526Z,14.70
2019-02-12T15:07:07.558Z,14.60
2019-02-12T15:09:41.892Z,14.60
2019-02-12T15:12:16.207Z,14.00
2019-02-12T15:14:50.511Z,13.80
2019-02-12T15:17:25.406Z,13.90
2019-02-12T15:19:59.762Z,13.70
2019-02-12T15:22:33.851Z,13.50
2019-02-12T15:25:06.723Z,13.50
2019-02-12T15:27:41.060Z,13.80
2019-02-12T15:30:15.584Z,13.80
2019-02-12T15:32:49.852Z,13.80
2019-02-12T15:35:23.647Z,13.80
2019-02-12T15:37:58.023Z,14.10
2019-02-12T15:40:32.114Z,13.80
2019-02-12T15:43:06.472Z,13.20
2019-02-12T15:45:39.641Z,13.00
2019-02-12T15:48:13.864Z,13.30
2019-02-12T15:50:47.690Z,13.30
2019-02-12T15:53:20.863Z,13.50
2019-02-12T15:55:55.176Z,13.70
2019-02-12T15:58:30.261Z,13.80
2019-02-12T16:01:06.087Z,14.00
2019-02-12T16:03:40.724Z,13.60
2019-02-12T16:06:13.693Z,13.50
2019-02-12T16:08:49.214Z,13.30
2019-02-12T16:11:23.657Z,13.30
2019-02-12T16:13:58.867Z,13.10
2019-02-12T16:16:33.375Z,12.90
2019-02-12T16:19:07.849Z,12.90
2019-02-12T16:21:42.614Z,13.00
2019-02-12T16:24:17.176Z,12.80
2019-02-12T16:26:51.414Z,12.80
2019-02-12T16:29:25.650Z,13.10
2019-02-12T16:31:59.024Z,13.20
2019-02-12T16:34:32.896Z,13.20
2019-02-12T16:37:06.725Z,13.40
2019-02-12T16:39:40.951Z,13.50
2019-02-12T16:42:14.651Z,13.50
2019-02-12T16:44:48.388Z,13.50
2019-02-12T16:47:22.757Z,13.50
2019-02-12T16:49:57.011Z,13.70
2019-02-12T16:52:30.928Z,13.40
2019-02-12T16:55:04.609Z,13.50
2019-02-12T16:57:38.377Z,13.90
2019-02-12T17:00:18.500Z,14.10
2019-02-12T17:02:52.192Z,14.10
2019-02-12T17:05:26.067Z,14.20
2019-02-12T17:07:59.996Z,14.20
2019-02-12T17:10:33.687Z,14.20
2019-02-12T17:13:07.487Z,14.10
2019-02-12T17:15:41.695Z,14.20
2019-02-12T17:18:15.450Z,14.40
2019-02-12T17:20:49.665Z,14.50
2019-02-12T17:23:24.056Z,14.70
2019-02-12T17:25:59.744Z,14.80
2019-02-12T17:28:33.927Z,14.90
2019-02-12T17:31:08.368Z,14.90
2019-02-12T17:33:43.888Z,15.00
2019-02-12T17:36:17.638Z,15.00
2019-02-12T17:38:50.075Z,15.00
2019-02-12T17:41:23.971Z,15.00
2019-02-12T17:43:58.135Z,14.60
2019-02-12T17:46:32.120Z,14.40
2019-02-12T17:49:07.368Z,14.10
2019-02-12T17:51:42.668Z,13.90
2019-02-12T17:54:18.381Z,13.90
2019-02-12T17:57:02.004Z,13.90
2019-02-12T17:59:37.379Z,13.80
2019-02-12T18:02:12.659Z,13.50
2019-02-12T18:04:47.279Z,13.40
2019-02-12T18:07:21.006Z,13.30
2019-02-12T18:09:54.791Z,13.70
2019-02-12T18:12:29.664Z,13.70
2019-02-12T18:15:03.590Z,13.80
2019-02-12T18:17:38.939Z,13.80
2019-02-12T18:20:13.004Z,13.80
2019-02-12T18:22:47.559Z,13.50
2019-02-12T18:25:22.269Z,13.40
2019-02-12T18:27:56.673Z,13.50
2019-02-12T18:30:32.082Z,13.70
2019-02-12T18:33:07.035Z,14.00
2019-02-12T18:35:41.427Z,13.70
2019-02-12T18:38:15.217Z,13.70
2019-02-12T18:40:49.561Z,13.50
2019-02-12T18:43:23.419Z,13.30
2019-02-12T18:45:58.583Z,13.10
2019-02-12T18:48:32.859Z,13.10
2019-02-12T18:51:07.036Z,13.00
2019-02-12T18:53:40.765Z,12.80
2019-02-12T18:56:14.930Z,12.80
2019-02-12T18:58:49.201Z,12.80
2019-02-12T19:01:22.465Z,13.00
2019-02-12T19:03:56.267Z,13.10
2019-02-12T19:06:28.826Z,13.20
2019-02-12T19:09:01.515Z,13.40
2019-02-12T19:11:33.952Z,13.50
2019-02-12T19:14:07.394Z,13.60
2019-02-12T19:16:40.292Z,13.30
2019-02-12T19:19:13.536Z,13.30
2019-02-12T19:21:46.693Z,13.40
2019-02-12T19:24:20.339Z,13.50
2019-02-12T19:26:54.769Z,13.70
2019-02-12T19:29:27.320Z,13.00
2019-02-12T19:32:00.281Z,12.40
2019-02-12T19:34:32.787Z,12.40
2019-02-12T19:37:05.705Z,12.40
2019-02-12T19:39:38.755Z,12.20
2019-02-12T19:42:12.576Z,11.90
2019-02-12T19:44:45.916Z,11.60
2019-02-12T19:47:18.677Z,11.50
2019-02-12T19:49:51.599Z,11.50
2019-02-12T19:52:23.917Z,11.80
2019-02-12T19:54:57.067Z,11.80
2019-02-12T19:57:30.429Z,12.20
2019-02-12T20:00:03.344Z,11.90
2019-02-12T20:02:35.782Z,11.90
2019-02-12T20:05:08.672Z,12.30
2019-02-12T20:07:41.910Z,12.80
2019-02-12T20:10:13.958Z,13.20
2019-02-12T20:12:47.669Z,13.20
2019-02-12T20:15:20.225Z,13.20
2019-02-12T20:17:54.582Z,13.10
2019-02-12T20:20:27.470Z,13.30
2019-02-12T20:23:00.965Z,13.30
2019-02-12T20:25:34.249Z,13.30
2019-02-12T20:28:07.113Z,12.80
2019-02-12T20:30:39.835Z,12.30
2019-02-12T20:33:12.838Z,12.30
2019-02-12T20:35:45.554Z,12.20
2019-02-12T20:38:19.619Z,11.90
2019-02-12T20:40:53.203Z,12.00
2019-02-12T20:43:26.535Z,12.40
2019-02-12T20:46:00.789Z,12.40
2019-02-12T20:48:33.395Z,12.70
2019-02-12T20:51:06.190Z,12.80
2019-02-12T20:53:40.102Z,12.80
2019-02-12T20:56:12.831Z,12.80
2019-02-12T20:58:46.643Z,12.90
2019-02-12T21:01:18.982Z,13.10
2019-02-12T21:03:52.647Z,13.20
2019-02-12T21:06:25.628Z,13.00
2019-02-12T21:08:58.287Z,13.10
2019-02-12T21:11:30.774Z,13.20
2019-02-12T21:14:04.071Z,13.30
2019-02-12T21:16:36.994Z,13.40
2019-02-12T21:19:09.914Z,13.20
2019-02-12T21:21:43.775Z,13.10
2019-02-12T21:24:16.712Z,13.10
2019-02-12T21:26:49.147Z,12.90
2019-02-12T21:29:22.417Z,12.90
2019-02-12T21:31:55.213Z,13.00
2019-02-12T21:34:28.295Z,13.00
2019-02-12T21:37:01.599Z,13.00
2019-02-12T21:39:34.610Z,13.10
2019-02-12T21:42:07.551Z,13.00
2019-02-12T21:44:40.563Z,12.90
2019-02-12T21:47:13.719Z,13.00
2019-02-12T21:49:47.222Z,13.10
2019-02-12T21:52:19.590Z,13.10
2019-02-12T21:54:53.447Z,12.70
2019-02-12T21:57:31.556Z,12.80
2019-02-12T22:00:01.186Z,12.60
2019-02-12T22:02:33.239Z,12.00
2019-02-12T22:05:06.174Z,11.60
2019-02-12T22:07:38.670Z,11.20
2019-02-12T22:10:14.698Z,11.00
2019-02-12T22:12:48.309Z,11.00
2019-02-12T22:15:21.990Z,11.60
2019-02-12T22:17:54.856Z,12.00
2019-02-12T22:20:27.332Z,12.10
2019-02-12T22:23:02.001Z,11.50
2019-02-12T22:25:36.089Z,11.20
2019-02-12T22:28:09.450Z,10.60
2019-02-12T22:30:43.389Z,10.30
2019-02-12T22:33:17.422Z,10.40
2019-02-12T22:35:50.705Z,10.60
2019-02-12T22:38:24.520Z,10.30
2019-02-12T22:40:57.850Z,10.20
2019-02-12T22:43:31.956Z,10.20
2019-02-12T22:46:05.643Z,10.90
2019-02-12T22:48:39.219Z,11.20
2019-02-12T22:51:13.452Z,11.30
2019-02-12T22:53:47.796Z,11.40
2019-02-12T22:56:45.563Z,11.50
2019-02-12T22:59:19.345Z,11.70
2019-02-12T23:01:53.359Z,11.90
2019-02-12T23:04:27.297Z,12.20
2019-02-12T23:07:01.041Z,12.20
2019-02-12T23:09:34.880Z,11.90
2019-02-12T23:12:07.701Z,11.80
2019-02-12T23:14:40.906Z,11.70
2019-02-12T23:17:14.486Z,11.50
2019-02-12T23:19:48.551Z,11.00
2019-02-12T23:22:22.813Z,10.70
2019-02-12T23:24:56.825Z,10.60
2019-02-12T23:27:30.481Z,10.80
2019-02-12T23:30:04.186Z,11.30
2019-02-12T23:32:38.318Z,11.80
2019-02-12T23:35:12.451Z,11.90
2019-02-12T23:37:45.314Z,12.00
2019-02-12T23:40:20.255Z,11.70
2019-02-12T23:42:53.974Z,11.50
2019-02-12T23:45:27.216Z,11.20
2019-02-12T23:48:01.492Z,11.20
2019-02-12T23:50:35.456Z,11.00
2019-02-12T23:53:08.811Z,10.90
2019-02-12T23:55:42.807Z,11.00
2019-02-12T23:58:16.361Z,11.00
